createdAt,value
2018-12-21T00:01:21.812Z,9.54
2018-12-21T00:03:51.810Z,9.44
2018-12-21T00:06:21.798Z,9.57
2018-12-21T00:08:51.722Z,9.52
2018-12-21T00:11:21.729Z,9.41
2018-12-21T00:13:51.855Z,9.70
2018-12-21T00:16:21.824Z,9.75
2018-12-21T00:18:51.754Z,9.67
2018-12-21T00:21:22.197Z,9.54
2018-12-21T00:23:53.516Z,9.56
2018-12-21T00:26:23.677Z,9.55
2018-12-21T00:28:53.753Z,9.55
2018-12-21T00:31:29.061Z,9.61
2018-12-21T00:34:04.279Z,9.63
2018-12-21T00:36:39.601Z,9.56
2018-12-21T00:39:15.279Z,9.66
2018-12-21T00:41:44.418Z,9.60
2018-12-21T00:47:18.053Z,9.68
2018-12-21T00:49:48.040Z,9.66
2018-12-21T00:52:17.949Z,9.68
2018-12-21T00:54:47.925Z,9.73
2018-12-21T00:57:18.840Z,9.65
2018-12-21T00:59:49.717Z,9.59
2018-12-21T01:02:19.787Z,9.50
2018-12-21T01:04:49.801Z,9.61
2018-12-21T01:10:05.377Z,9.70
2018-12-21T01:12:35.644Z,9.58
2018-12-21T01:15:05.968Z,9.69
2018-12-21T01:17:35.955Z,9.63
2018-12-21T01:20:06.983Z,9.56
2018-12-21T01:22:37.663Z,9.65
2018-12-21T01:25:07.805Z,9.50
2018-12-21T01:27:38.657Z,9.56
2018-12-21T01:30:09.008Z,9.67
2018-12-21T01:32:39.048Z,9.61
2018-12-21T01:35:09.984Z,9.50
2018-12-21T01:37:39.927Z,9.57
2018-12-21T01:40:09.895Z,9.53
2018-12-21T01:42:39.890Z,9.57
2018-12-21T01:45:09.884Z,9.51
2018-12-21T01:47:39.873Z,9.25
2018-12-21T01:50:09.950Z,9.42
2018-12-21T01:52:39.928Z,9.55
2018-12-21T01:55:09.858Z,9.54
2018-12-21T01:57:39.977Z,9.67
2018-12-21T02:00:10.329Z,9.66
2018-12-21T02:02:41.299Z,9.77
2018-12-21T02:05:11.290Z,9.70
2018-12-21T02:07:41.224Z,9.73
2018-12-21T02:10:11.292Z,9.74
2018-12-21T02:12:41.193Z,9.79
2018-12-21T02:15:11.188Z,9.74
2018-12-21T02:17:41.173Z,9.78
2018-12-21T02:20:26.088Z,9.65
2018-12-21T02:22:56.157Z,9.64
2018-12-21T02:25:26.137Z,9.74
2018-12-21T02:27:56.063Z,9.70
2018-12-21T02:30:26.041Z,9.74
2018-12-21T02:32:56.229Z,9.82
2018-12-21T02:35:26.188Z,9.79
2018-12-21T02:37:56.107Z,9.77
2018-12-21T02:40:26.021Z,9.78
2018-12-21T02:42:55.939Z,9.76
2018-12-21T02:45:25.930Z,9.71
2018-12-21T02:47:56.026Z,9.64
2018-12-21T02:50:25.942Z,9.80
2018-12-21T02:52:55.987Z,9.69
2018-12-21T02:55:26.010Z,9.65
2018-12-21T02:57:56.017Z,9.66
2018-12-21T03:00:26.018Z,9.67
2018-12-21T03:02:55.922Z,9.69
2018-12-21T03:05:25.861Z,9.64
2018-12-21T03:07:55.810Z,9.68
2018-12-21T03:10:26.777Z,9.60
2018-12-21T03:12:56.689Z,9.54
2018-12-21T03:15:26.747Z,9.54
2018-12-21T03:17:56.696Z,9.53
2018-12-21T03:20:26.620Z,9.53
2018-12-21T03:22:56.517Z,9.62
2018-12-21T03:25:26.521Z,9.69
2018-12-21T03:27:56.432Z,9.73
2018-12-21T03:30:26.539Z,9.79
2018-12-21T03:32:56.505Z,9.79
2018-12-21T03:35:26.510Z,9.79
2018-12-21T03:37:56.499Z,9.82
2018-12-21T03:40:26.501Z,9.85
2018-12-21T03:42:56.598Z,9.74
2018-12-21T03:45:26.650Z,9.81
2018-12-21T03:47:56.656Z,9.81
2018-12-21T03:50:26.581Z,9.90
2018-12-21T03:52:56.501Z,9.85
2018-12-21T03:55:26.508Z,9.83
2018-12-21T03:57:56.510Z,9.85
2018-12-21T04:00:26.436Z,9.86
2018-12-21T04:02:56.347Z,9.81
2018-12-21T04:05:26.415Z,9.90
2018-12-21T04:07:56.345Z,9.89
2018-12-21T04:10:26.274Z,9.88
2018-12-21T04:12:56.185Z,9.96
2018-12-21T04:15:26.194Z,9.94
2018-12-21T04:17:56.106Z,10.02
2018-12-21T04:20:26.057Z,9.98
2018-12-21T04:22:57.522Z,9.96
2018-12-21T04:25:27.550Z,9.92
2018-12-21T04:27:57.474Z,9.96
2018-12-21T04:30:27.477Z,9.98
2018-12-21T04:32:57.461Z,9.97
2018-12-21T04:35:27.563Z,9.87
2018-12-21T04:37:57.482Z,9.98
2018-12-21T04:40:27.412Z,9.91
2018-12-21T04:42:57.337Z,10.00
2018-12-21T04:45:27.262Z,9.90
2018-12-21T04:47:57.212Z,10.00
2018-12-21T04:50:27.181Z,9.87
2018-12-21T04:52:57.405Z,10.12
2018-12-21T04:55:27.467Z,10.07
2018-12-21T04:57:57.381Z,9.92
2018-12-21T05:00:27.365Z,10.13
2018-12-21T05:02:57.347Z,10.08
2018-12-21T05:05:27.330Z,10.23
2018-12-21T05:07:57.337Z,10.08
2018-12-21T05:10:27.331Z,10.12
2018-12-21T05:12:57.655Z,10.09
2018-12-21T05:18:12.775Z,10.19
2018-12-21T05:20:42.804Z,10.33
2018-12-21T05:23:12.809Z,10.31
2018-12-21T05:25:42.823Z,10.13
2018-12-21T05:28:12.847Z,10.02
2018-12-21T05:30:42.866Z,10.14
2018-12-21T05:33:12.914Z,10.12
2018-12-21T05:35:42.861Z,10.18
2018-12-21T05:38:12.959Z,10.14
2018-12-21T05:40:42.899Z,10.12
2018-12-21T05:43:12.888Z,10.13
2018-12-21T05:45:42.830Z,10.05
2018-12-21T05:48:12.754Z,10.19
2018-12-21T05:50:43.710Z,10.21
2018-12-21T05:53:13.645Z,10.19
2018-12-21T05:55:43.671Z,10.31
2018-12-21T05:58:13.605Z,10.13
2018-12-21T06:00:49.162Z,10.31
2018-12-21T06:03:19.306Z,10.22
2018-12-21T06:05:49.338Z,10.09
2018-12-21T06:08:19.802Z,10.26
2018-12-21T06:10:49.749Z,10.24
2018-12-21T06:13:19.755Z,10.21
2018-12-21T06:15:49.697Z,10.31
2018-12-21T06:18:19.621Z,10.32
2018-12-21T06:20:49.754Z,10.33
2018-12-21T06:23:19.773Z,10.24
2018-12-21T06:25:49.807Z,10.40
2018-12-21T06:28:19.741Z,10.29
2018-12-21T06:30:49.677Z,10.30
2018-12-21T06:33:19.681Z,9.97
2018-12-21T06:35:50.754Z,10.11
2018-12-21T06:38:20.792Z,10.05
2018-12-21T06:40:50.813Z,9.89
2018-12-21T06:43:20.738Z,10.04
2018-12-21T06:45:51.966Z,10.05
2018-12-21T06:48:22.087Z,10.11
2018-12-21T06:50:53.146Z,10.08
2018-12-21T06:53:23.234Z,10.13
2018-12-21T06:55:53.289Z,10.11
2018-12-21T06:58:23.237Z,10.09
2018-12-21T07:00:53.205Z,10.13
2018-12-21T07:03:23.217Z,10.11
2018-12-21T07:05:53.162Z,10.25
2018-12-21T07:08:23.098Z,10.12
2018-12-21T07:10:53.030Z,10.10
2018-12-21T07:13:24.096Z,10.28
2018-12-21T07:15:54.142Z,10.26
2018-12-21T07:18:28.648Z,10.10
2018-12-21T07:21:14.855Z,10.03
2018-12-21T07:23:47.946Z,9.98
2018-12-21T07:26:17.882Z,10.04
2018-12-21T07:28:47.833Z,9.81
2018-12-21T07:31:17.944Z,9.92
2018-12-21T07:33:49.129Z,9.70
2018-12-21T07:36:20.101Z,9.58
2018-12-21T07:38:50.185Z,9.61
2018-12-21T07:41:20.202Z,9.68
2018-12-21T07:43:50.202Z,9.76
2018-12-21T07:46:20.217Z,9.72
2018-12-21T07:48:52.189Z,9.55
2018-12-21T07:51:22.293Z,9.62
2018-12-21T07:53:52.221Z,9.73
2018-12-21T07:56:22.203Z,9.66
2018-12-21T07:58:57.155Z,9.55
2018-12-21T08:01:29.341Z,9.52
2018-12-21T08:03:59.249Z,9.51
2018-12-21T08:06:29.189Z,9.56
2018-12-21T08:08:59.201Z,9.72
2018-12-21T08:11:29.133Z,9.63
2018-12-21T08:14:02.965Z,9.57
2018-12-21T08:16:32.906Z,9.51
2018-12-21T08:19:02.829Z,9.58
2018-12-21T08:21:32.760Z,9.58
2018-12-21T08:24:06.202Z,9.63
2018-12-21T08:26:36.177Z,9.71
2018-12-21T08:29:06.203Z,9.74
2018-12-21T08:31:36.277Z,9.58
2018-12-21T08:34:06.434Z,9.63
2018-12-21T08:36:36.481Z,9.76
2018-12-21T08:39:07.366Z,9.78
2018-12-21T08:41:37.291Z,9.68
2018-12-21T08:44:07.797Z,9.60
2018-12-21T08:46:37.885Z,9.70
2018-12-21T08:49:07.853Z,9.77
2018-12-21T08:51:38.029Z,9.72
2018-12-21T08:54:07.949Z,9.74
2018-12-21T08:56:38.060Z,10.01
2018-12-21T08:59:08.171Z,9.84
2018-12-21T09:01:38.242Z,9.85
2018-12-21T09:04:08.418Z,9.88
2018-12-21T09:06:38.368Z,9.72
2018-12-21T09:09:09.865Z,9.88
2018-12-21T09:11:46.304Z,9.90
2018-12-21T09:14:16.235Z,9.75
2018-12-21T09:16:46.221Z,9.80
2018-12-21T09:19:16.253Z,9.88
2018-12-21T09:21:47.301Z,10.00
2018-12-21T09:24:17.441Z,9.98
2018-12-21T09:26:47.458Z,9.80
2018-12-21T09:29:21.326Z,9.94
2018-12-21T09:31:51.365Z,10.00
2018-12-21T09:34:21.425Z,9.98
2018-12-21T09:36:51.422Z,9.97
2018-12-21T09:39:21.398Z,9.93
2018-12-21T09:41:51.369Z,9.98
2018-12-21T09:44:21.471Z,9.94
2018-12-21T09:46:51.577Z,10.02
2018-12-21T09:49:21.697Z,10.19
2018-12-21T09:51:51.663Z,10.18
2018-12-21T09:54:21.764Z,10.14
2018-12-21T09:56:52.765Z,10.11
2018-12-21T09:59:23.725Z,10.12
2018-12-21T10:01:53.718Z,10.04
2018-12-21T10:04:24.022Z,10.20
2018-12-21T10:06:58.169Z,10.11
2018-12-21T10:09:34.886Z,10.22
2018-12-21T10:12:04.983Z,10.11
2018-12-21T10:14:34.906Z,10.07
2018-12-21T10:17:04.997Z,10.15
2018-12-21T10:19:34.997Z,10.28
2018-12-21T10:22:05.136Z,10.23
2018-12-21T10:24:35.149Z,10.29
2018-12-21T10:27:05.169Z,10.28
2018-12-21T10:29:35.189Z,10.43
2018-12-21T10:32:07.331Z,10.18
2018-12-21T10:34:37.249Z,10.28
2018-12-21T10:37:08.357Z,10.38
2018-12-21T10:39:38.357Z,10.52
2018-12-21T10:42:08.396Z,10.62
2018-12-21T10:44:38.353Z,10.56
2018-12-21T10:47:08.329Z,10.64
2018-12-21T10:49:38.377Z,10.62
2018-12-21T10:52:12.670Z,10.58
2018-12-21T10:54:43.800Z,10.77
2018-12-21T10:57:13.957Z,10.75
2018-12-21T10:59:44.909Z,10.76
2018-12-21T11:02:14.945Z,10.66
2018-12-21T11:04:44.886Z,10.58
2018-12-21T11:07:29.421Z,10.77
2018-12-21T11:10:00.389Z,10.89
2018-12-21T11:12:30.397Z,10.86
2018-12-21T11:15:00.402Z,10.97
2018-12-21T11:17:30.361Z,11.01
2018-12-21T11:20:00.317Z,11.02
2018-12-21T11:22:32.330Z,11.05
2018-12-21T11:25:02.288Z,11.26
2018-12-21T11:27:32.351Z,11.01
2018-12-21T11:30:02.331Z,11.13
2018-12-21T11:32:32.430Z,11.37
2018-12-21T11:35:02.357Z,11.22
2018-12-21T11:37:32.401Z,11.26
2018-12-21T11:40:02.357Z,11.24
2018-12-21T11:42:32.343Z,11.27
2018-12-21T11:45:02.278Z,11.41
2018-12-21T11:47:32.241Z,11.42
2018-12-21T11:50:02.317Z,11.38
2018-12-21T11:52:32.271Z,11.47
2018-12-21T11:55:05.908Z,11.49
2018-12-21T11:57:38.636Z,11.59
2018-12-21T12:00:10.319Z,11.59
2018-12-21T12:02:40.293Z,11.67
2018-12-21T12:05:10.238Z,11.64
2018-12-21T12:07:40.434Z,11.67
2018-12-21T12:10:10.457Z,11.58
2018-12-21T12:12:40.403Z,11.64
2018-12-21T12:15:10.397Z,11.62
2018-12-21T12:17:40.370Z,11.59
2018-12-21T12:20:10.526Z,11.69
2018-12-21T12:22:40.474Z,11.70
2018-12-21T12:25:10.510Z,11.67
2018-12-21T12:27:40.505Z,11.53
2018-12-21T12:30:11.501Z,11.44
2018-12-21T12:32:41.579Z,11.55
2018-12-21T12:35:11.657Z,11.57
2018-12-21T12:37:41.677Z,11.69
2018-12-21T12:40:11.682Z,11.75
2018-12-21T12:42:41.693Z,11.79
2018-12-21T12:45:11.761Z,11.67
2018-12-21T12:47:41.710Z,11.71
2018-12-21T12:50:11.834Z,11.75
2018-12-21T12:52:41.941Z,11.74
2018-12-21T12:55:11.973Z,11.82
2018-12-21T12:57:43.157Z,11.72
2018-12-21T13:00:13.793Z,11.76
2018-12-21T13:02:44.022Z,11.72
2018-12-21T13:05:14.327Z,11.82
2018-12-21T13:07:45.407Z,11.94
2018-12-21T13:10:16.621Z,12.01
2018-12-21T13:12:47.253Z,11.92
2018-12-21T13:15:17.170Z,12.06
2018-12-21T13:17:51.561Z,12.02
2018-12-21T13:20:21.749Z,12.07
2018-12-21T13:22:51.715Z,11.99
2018-12-21T13:25:21.726Z,12.05
2018-12-21T13:27:51.761Z,11.95
2018-12-21T13:30:21.685Z,11.84
2018-12-21T13:32:51.737Z,12.01
2018-12-21T13:35:21.742Z,11.88
2018-12-21T13:37:51.758Z,11.94
2018-12-21T13:40:21.741Z,11.96
2018-12-21T13:42:51.787Z,11.82
2018-12-21T13:45:21.818Z,11.80
2018-12-21T13:47:51.744Z,11.87
2018-12-21T13:50:21.716Z,11.95
2018-12-21T13:52:51.765Z,11.79
2018-12-21T13:55:21.913Z,11.86
2018-12-21T13:57:52.149Z,11.86
2018-12-21T14:00:22.222Z,11.96
2018-12-21T14:02:52.270Z,11.81
2018-12-21T14:05:22.381Z,11.86
2018-12-21T14:07:52.361Z,11.90
2018-12-21T14:10:23.165Z,12.05
2018-12-21T14:12:54.463Z,12.11
2018-12-21T14:15:24.505Z,12.02
2018-12-21T14:17:54.481Z,12.01
2018-12-21T14:20:24.521Z,12.00
2018-12-21T14:22:54.549Z,12.03
2018-12-21T14:25:28.833Z,12.10
2018-12-21T14:27:56.512Z,12.04
2018-12-21T14:30:26.637Z,12.05
2018-12-21T14:32:57.729Z,12.21
2018-12-21T14:35:27.749Z,12.22
2018-12-21T14:37:57.735Z,12.34
2018-12-21T14:40:27.779Z,12.19
2018-12-21T14:42:58.105Z,12.31
2018-12-21T14:45:28.137Z,12.32
2018-12-21T14:47:58.532Z,12.39
2018-12-21T14:50:28.578Z,12.33
2018-12-21T14:52:58.647Z,12.43
2018-12-21T14:55:37.302Z,12.47
2018-12-21T14:58:00.985Z,12.43
2018-12-21T15:00:31.165Z,12.45
2018-12-21T15:03:01.336Z,12.38
2018-12-21T15:05:31.442Z,12.48
2018-12-21T15:08:01.433Z,12.46
2018-12-21T15:10:31.389Z,12.45
2018-12-21T15:13:01.350Z,12.44
2018-12-21T15:15:31.765Z,12.58
2018-12-21T15:18:01.857Z,12.39
2018-12-21T15:20:31.862Z,12.59
2018-12-21T15:23:01.885Z,12.68
2018-12-21T15:25:31.841Z,12.55
2018-12-21T15:28:01.846Z,12.53
2018-12-21T15:30:31.865Z,12.66
2018-12-21T15:33:01.868Z,12.79
2018-12-21T15:35:32.516Z,12.60
2018-12-21T15:38:02.522Z,12.61
2018-12-21T15:40:32.544Z,12.61
2018-12-21T15:43:02.610Z,12.66
2018-12-21T15:45:33.989Z,12.63
2018-12-21T15:48:04.037Z,12.65
2018-12-21T15:50:33.966Z,12.69
2018-12-21T15:53:03.933Z,12.66
2018-12-21T15:55:34.983Z,12.64
2018-12-21T15:58:05.133Z,12.61
2018-12-21T16:00:35.117Z,12.53
2018-12-21T16:03:06.822Z,12.66
2018-12-21T16:05:36.738Z,12.77
2018-12-21T16:08:06.858Z,12.68
2018-12-21T16:10:38.050Z,12.68
2018-12-21T16:13:08.186Z,12.81
2018-12-21T16:15:38.217Z,12.89
2018-12-21T16:18:09.042Z,12.91
2018-12-21T16:20:39.761Z,12.87
2018-12-21T16:23:09.707Z,12.75
2018-12-21T16:25:39.625Z,12.88
2018-12-21T16:28:09.558Z,12.86
2018-12-21T16:30:39.509Z,12.94
2018-12-21T16:33:09.494Z,12.93
2018-12-21T16:35:39.418Z,12.83
2018-12-21T16:38:09.437Z,12.82
2018-12-21T16:40:39.433Z,12.80
2018-12-21T16:43:09.377Z,12.80
2018-12-21T16:45:39.290Z,12.75
2018-12-21T16:48:09.239Z,12.79
2018-12-21T16:50:39.156Z,12.90
2018-12-21T16:53:09.106Z,12.83
2018-12-21T16:55:39.072Z,12.90
2018-12-21T16:58:09.087Z,12.97
2018-12-21T17:00:39.011Z,13.08
2018-12-21T17:03:15.598Z,13.05
2018-12-21T17:05:42.127Z,13.00
2018-12-21T17:08:12.091Z,13.04
2018-12-21T17:10:42.005Z,13.04
2018-12-21T17:13:11.953Z,13.02
2018-12-21T17:15:41.913Z,13.14
2018-12-21T17:18:12.106Z,13.05
2018-12-21T17:20:42.185Z,12.90
2018-12-21T17:23:12.178Z,13.05
2018-12-21T17:25:43.122Z,13.06
2018-12-21T17:28:13.121Z,13.05
2018-12-21T17:30:43.073Z,13.05
2018-12-21T17:33:13.013Z,12.95
2018-12-21T17:35:42.937Z,13.12
2018-12-21T17:38:12.896Z,13.22
2018-12-21T17:40:42.834Z,13.25
2018-12-21T17:43:12.810Z,13.12
2018-12-21T17:45:42.809Z,13.02
2018-12-21T17:48:13.013Z,13.22
2018-12-21T17:50:42.958Z,13.18
2018-12-21T17:53:12.980Z,13.15
2018-12-21T17:55:42.968Z,13.06
2018-12-21T17:58:13.122Z,13.10
2018-12-21T18:00:43.194Z,13.17
2018-12-21T18:03:55.745Z,13.19
2018-12-21T18:06:25.955Z,13.23
2018-12-21T18:08:56.004Z,13.30
2018-12-21T18:11:26.030Z,13.24
2018-12-21T18:13:56.006Z,13.35
2018-12-21T18:16:26.109Z,13.31
2018-12-21T18:18:56.230Z,13.13
2018-12-21T18:21:26.413Z,13.22
2018-12-21T18:23:56.581Z,13.13
2018-12-21T18:26:26.493Z,13.25
2018-12-21T18:28:56.757Z,13.16
2018-12-21T18:31:34.968Z,13.20
2018-12-21T18:34:09.374Z,13.32
2018-12-21T18:36:39.530Z,13.25
2018-12-21T18:39:09.527Z,13.26
2018-12-21T18:41:39.564Z,13.43
2018-12-21T18:44:09.678Z,13.42
2018-12-21T18:46:39.650Z,13.41
2018-12-21T18:49:09.858Z,13.38
2018-12-21T18:51:39.949Z,13.34
2018-12-21T18:54:10.023Z,13.30
2018-12-21T18:57:18.574Z,13.34
2018-12-21T18:59:48.685Z,13.25
2018-12-21T19:02:18.709Z,13.35
2018-12-21T19:04:48.802Z,13.40
2018-12-21T19:07:18.750Z,13.28
2018-12-21T19:09:48.781Z,13.29
2018-12-21T19:12:19.050Z,13.34
2018-12-21T19:14:49.006Z,13.43
2018-12-21T19:20:06.022Z,13.29
2018-12-21T19:22:36.185Z,13.29
2018-12-21T19:25:07.726Z,13.39
2018-12-21T19:30:25.077Z,13.22
2018-12-21T19:32:55.133Z,13.27
2018-12-21T19:35:28.796Z,13.21
2018-12-21T19:37:57.237Z,13.28
2018-12-21T19:40:27.276Z,13.46
2018-12-21T19:45:43.005Z,13.29
2018-12-21T19:50:58.665Z,13.32
2018-12-21T19:53:28.634Z,13.33
2018-12-21T19:56:17.442Z,13.30
2018-12-21T19:58:47.353Z,13.38
2018-12-21T20:01:17.313Z,13.30
2018-12-21T20:03:47.313Z,13.39
2018-12-21T20:06:17.277Z,13.35
2018-12-21T20:08:47.218Z,13.34
2018-12-21T20:11:17.230Z,13.49
2018-12-21T20:13:47.205Z,13.32
2018-12-21T20:16:17.166Z,13.26
2018-12-21T20:18:48.097Z,13.31
2018-12-21T20:21:18.206Z,13.24
2018-12-21T20:23:48.569Z,13.35
2018-12-21T20:26:18.538Z,13.28
2018-12-21T20:28:48.529Z,13.21
2018-12-21T20:31:18.622Z,13.14
2018-12-21T20:33:48.546Z,13.27
2018-12-21T20:36:18.521Z,13.27
2018-12-21T20:38:49.861Z,13.25
2018-12-21T20:41:19.886Z,13.41
2018-12-21T20:43:49.946Z,13.27
2018-12-21T20:46:19.894Z,13.36
2018-12-21T20:48:49.873Z,13.38
2018-12-21T20:51:19.917Z,13.24
2018-12-21T20:53:49.829Z,13.13
2018-12-21T20:56:19.898Z,13.23
2018-12-21T20:58:56.422Z,13.31
2018-12-21T21:01:26.613Z,13.19
2018-12-21T21:03:56.529Z,13.19
2018-12-21T21:06:26.506Z,13.31
2018-12-21T21:08:56.597Z,13.08
2018-12-21T21:11:26.671Z,13.22
2018-12-21T21:13:56.696Z,13.26
2018-12-21T21:16:26.681Z,13.34
2018-12-21T21:18:56.745Z,13.18
2018-12-21T21:21:26.765Z,13.22
2018-12-21T21:23:56.679Z,13.10
2018-12-21T21:26:26.733Z,12.95
2018-12-21T21:28:57.726Z,12.90
2018-12-21T21:31:29.969Z,13.06
2018-12-21T21:33:59.938Z,12.95
2018-12-21T21:36:29.882Z,13.04
2018-12-21T21:38:59.842Z,13.06
2018-12-21T21:41:29.902Z,12.99
2018-12-21T21:43:59.898Z,13.08
2018-12-21T21:46:29.945Z,13.14
2018-12-21T21:48:59.937Z,13.10
2018-12-21T21:51:29.985Z,13.03
2018-12-21T21:53:59.849Z,13.01
2018-12-21T21:56:29.797Z,13.07
2018-12-21T21:58:59.801Z,13.15
2018-12-21T22:01:29.749Z,13.02
2018-12-21T22:03:59.662Z,13.14
2018-12-21T22:06:29.678Z,13.14
2018-12-21T22:08:59.753Z,13.23
2018-12-21T22:11:29.694Z,13.15
2018-12-21T22:13:59.612Z,13.29
2018-12-21T22:16:29.643Z,13.26
2018-12-21T22:18:59.840Z,13.29
2018-12-21T22:21:29.774Z,13.23
2018-12-21T22:23:59.699Z,13.31
2018-12-21T22:26:29.693Z,13.25
2018-12-21T22:28:59.797Z,13.23
2018-12-21T22:31:29.853Z,13.28
2018-12-21T22:33:59.805Z,13.28
2018-12-21T22:36:29.821Z,13.30
2018-12-21T22:38:59.853Z,13.38
2018-12-21T22:41:29.793Z,13.33
2018-12-21T22:43:59.720Z,13.31
2018-12-21T22:46:29.698Z,13.34
2018-12-21T22:48:59.617Z,13.44
2018-12-21T22:51:29.548Z,13.39
2018-12-21T22:53:59.461Z,13.36
2018-12-21T22:56:29.401Z,13.29
2018-12-21T22:58:59.311Z,13.33
2018-12-21T23:01:29.334Z,13.33
2018-12-21T23:03:59.414Z,13.38
2018-12-21T23:06:29.470Z,13.42
2018-12-21T23:08:59.374Z,13.32
2018-12-21T23:11:29.405Z,13.35
2018-12-21T23:13:59.325Z,13.30
2018-12-21T23:16:29.309Z,13.37
2018-12-21T23:18:59.262Z,13.34
2018-12-21T23:21:29.281Z,13.38
2018-12-21T23:23:59.201Z,13.32
2018-12-21T23:26:29.314Z,13.38
2018-12-21T23:28:59.282Z,13.40
2018-12-21T23:31:29.245Z,13.35
2018-12-21T23:33:59.166Z,13.31
2018-12-21T23:36:29.120Z,13.36
2018-12-21T23:38:59.109Z,13.46
2018-12-21T23:41:29.121Z,13.32
2018-12-21T23:43:59.041Z,13.43
2018-12-21T23:46:29.147Z,13.45
2018-12-21T23:48:59.086Z,13.34
2018-12-21T23:51:29.025Z,13.35
2018-12-21T23:53:58.989Z,13.37
2018-12-21T23:56:28.994Z,13.40
2018-12-21T23:58:58.908Z,13.38
